Time;durP1;ratioP1;P1;durP2;ratioP2;P2;SDS_P1;SDS_P2;PMS_P1;PMS_P2;Temp;Humidity;BMP_temperature;BMP_pressure;BME280_temperature;BME280_humidity;BME280_pressure;Samples;Min_cycle;Max_cycle;Signal;HPM_P1;HPM_P2
2021/05/09 00:01:22;;;;;;;2.53;2.37;;;;;;;8.13;71.28;97750.50;5002320;28;20232;-69
2021/05/09 00:03:50;;;;;;;2.50;2.37;;;;;;;8.21;70.40;97741.81;5003437;28;20212;-70
2021/05/09 00:06:17;;;;;;;2.60;2.40;;;;;;;7.96;71.50;97739.00;5003059;28;20228;-69
2021/05/09 00:08:44;;;;;;;3.13;2.93;;;;;;;7.84;72.17;97745.50;5003642;28;20201;-67
2021/05/09 00:11:11;;;;;;;3.37;3.10;;;;;;;7.87;71.94;97747.84;5001019;28;20767;-69
2021/05/09 00:13:38;;;;;;;2.80;2.70;;;;;;;7.82;72.48;97743.00;5002979;28;20225;-67
2021/05/09 00:16:05;;;;;;;3.17;2.97;;;;;;;7.75;72.55;97745.41;5003191;28;20197;-69
2021/05/09 00:18:33;;;;;;;3.33;3.00;;;;;;;7.60;73.71;97739.88;5002707;28;20320;-71
2021/05/09 00:21:01;;;;;;;2.90;2.70;;;;;;;7.58;74.14;97739.19;5003814;28;20224;-68
2021/05/09 00:23:28;;;;;;;3.87;3.10;;;;;;;7.52;74.52;97740.63;4999804;28;20566;-71
2021/05/09 00:25:58;;;;;;;3.10;2.87;;;;;;;7.57;74.25;97740.16;5003335;28;20292;-71
2021/05/09 00:28:25;;;;;;;3.27;3.07;;;;;;;7.39;74.92;97733.09;5001354;28;20215;-68
2021/05/09 00:30:52;;;;;;;3.03;2.83;;;;;;;7.31;75.63;97733.00;5002814;28;20244;-70
2021/05/09 00:33:19;;;;;;;3.20;3.00;;;;;;;7.32;75.74;97733.81;5003458;28;20240;-69
2021/05/09 00:35:46;;;;;;;3.20;3.03;;;;;;;7.29;76.30;97732.34;5000421;28;20674;-72
2021/05/09 00:38:14;;;;;;;2.97;2.70;;;;;;;7.34;76.03;97726.59;5002891;28;20208;-69
2021/05/09 00:40:41;;;;;;;3.13;2.93;;;;;;;7.26;75.90;97723.88;5001806;28;20240;-69
2021/05/09 00:43:12;;;;;;;2.90;2.70;;;;;;;7.31;76.34;97721.63;4999695;28;20465;-69
2021/05/09 00:45:42;;;;;;;3.17;2.97;;;;;;;7.15;76.55;97712.59;5000101;28;20209;-71
2021/05/09 00:48:10;;;;;;;2.93;2.80;;;;;;;7.02;77.16;97720.84;5001813;28;20279;-72
2021/05/09 00:50:38;;;;;;;3.20;3.00;;;;;;;7.06;76.77;97722.19;4998052;28;20708;-71
2021/05/09 00:53:07;;;;;;;3.43;3.13;;;;;;;6.93;77.55;97717.28;5002507;28;20235;-69
2021/05/09 00:55:36;;;;;;;3.13;2.93;;;;;;;6.93;78.87;97719.91;5002441;28;20568;-72
2021/05/09 00:58:03;;;;;;;2.50;2.40;;;;;;;7.02;77.91;97718.22;4997639;28;20678;-69
2021/05/09 01:00:30;;;;;;;3.37;2.93;;;;;;;6.85;79.17;97714.56;5002663;28;20604;-70
2021/05/09 01:02:57;;;;;;;2.83;2.63;;;;;;;6.83;78.95;97713.88;5003264;28;20215;-67
2021/05/09 01:05:24;;;;;;;3.23;3.03;;;;;;;6.97;78.25;97716.97;5001954;28;20240;-69
2021/05/09 01:07:51;;;;;;;3.23;3.03;;;;;;;6.88;79.20;97708.19;5003035;28;20559;-68
2021/05/09 01:10:18;;;;;;;3.17;2.97;;;;;;;6.87;79.08;97709.97;5002246;28;20224;-69
2021/05/09 01:12:46;;;;;;;3.90;3.20;;;;;;;6.79;79.67;97707.25;5002753;28;20588;-69
2021/05/09 01:15:14;;;;;;;3.30;3.10;;;;;;;6.66;80.37;97705.81;5000323;28;20201;-69
2021/05/09 01:17:41;;;;;;;3.30;3.17;;;;;;;6.62;80.62;97704.41;5002962;28;20212;-69
2021/05/09 01:20:30;;;;;;;3.63;3.43;;;;;;;6.58;81.26;97700.41;5000571;28;20227;-71
2021/05/09 01:22:57;;;;;;;3.23;2.93;;;;;;;6.65;81.29;97698.88;5002537;28;20572;-68
2021/05/09 01:25:24;;;;;;;3.37;3.17;;;;;;;6.63;81.44;97699.97;5000207;28;20685;-71
2021/05/09 01:27:51;;;;;;;3.87;3.57;;;;;;;6.55;81.91;97698.06;5002722;28;20316;-69
2021/05/09 01:30:18;;;;;;;3.77;3.47;;;;;;;6.53;81.84;97694.75;5002344;28;20519;-69
2021/05/09 01:32:45;;;;;;;3.47;3.27;;;;;;;6.42;82.02;97694.94;5002173;28;20290;-71
2021/05/09 01:35:13;;;;;;;3.50;3.20;;;;;;;6.36;82.84;97688.47;5002740;28;20304;-69
2021/05/09 01:37:41;;;;;;;3.27;3.00;;;;;;;6.35;83.89;97682.38;5001019;28;20219;-69
2021/05/09 01:40:11;;;;;;;3.07;2.90;;;;;;;6.42;83.54;97676.53;5002194;28;20235;-71
2021/05/09 01:42:38;;;;;;;2.90;2.80;;;;;;;6.34;84.21;97678.09;5001953;28;20216;-72
2021/05/09 01:45:07;;;;;;;3.30;3.10;;;;;;;6.28;84.87;97677.81;5002963;28;20205;-70
2021/05/09 01:47:36;;;;;;;3.97;3.50;;;;;;;6.27;84.14;97684.91;4999020;28;20507;-70
2021/05/09 01:50:05;;;;;;;3.63;3.33;;;;;;;6.23;84.84;97683.50;5001645;28;20224;-69
2021/05/09 01:52:32;;;;;;;3.33;3.13;;;;;;;6.36;83.31;97680.56;5001411;28;20228;-69
2021/05/09 01:55:00;;;;;;;3.23;3.03;;;;;;;6.36;83.45;97683.19;4998908;28;20812;-70
2021/05/09 01:57:27;;;;;;;3.63;3.40;;;;;;;6.28;84.11;97681.31;5002065;28;20297;-69
2021/05/09 01:59:55;;;;;;;3.50;3.30;;;;;;;6.27;83.71;97668.28;5000579;28;20717;-69
2021/05/09 02:02:22;;;;;;;3.20;3.00;;;;;;;6.29;83.75;97667.16;5001425;28;20721;-71
2021/05/09 02:04:49;;;;;;;3.27;3.17;;;;;;;6.13;85.11;97674.81;5001583;28;20216;-70
2021/05/09 02:07:16;;;;;;;4.23;3.87;;;;;;;6.05;85.84;97660.59;5001387;28;20236;-70
2021/05/09 02:09:43;;;;;;;3.00;2.90;;;;;;;6.17;83.93;97668.31;5001643;28;20641;-70
2021/05/09 02:12:11;;;;;;;3.40;3.20;;;;;;;6.18;84.42;97662.06;5003235;28;20299;-69
2021/05/09 02:14:38;;;;;;;2.97;2.87;;;;;;;6.12;84.49;97660.00;5001643;28;20209;-69
2021/05/09 02:17:06;;;;;;;3.77;3.57;;;;;;;6.10;84.47;97652.28;5002081;28;20201;-69
2021/05/09 02:19:33;;;;;;;3.60;3.40;;;;;;;5.98;84.44;97663.91;5001274;28;20216;-69
2021/05/09 02:22:00;;;;;;;3.60;3.40;;;;;;;5.89;85.32;97662.97;5000526;28;20597;-70
2021/05/09 02:24:27;;;;;;;3.53;3.33;;;;;;;5.83;85.82;97667.00;5001506;28;20216;-70
2021/05/09 02:26:54;;;;;;;3.80;3.50;;;;;;;5.82;85.88;97653.97;5002642;28;20220;-67
2021/05/09 02:29:22;;;;;;;3.93;3.70;;;;;;;5.86;85.65;97655.34;5004639;28;20219;-73
2021/05/09 02:31:49;;;;;;;3.70;3.40;;;;;;;5.73;86.56;97656.50;5005293;28;20207;-68
2021/05/09 02:34:16;;;;;;;3.77;3.50;;;;;;;5.98;84.64;97663.91;5004782;28;20200;-69
2021/05/09 02:36:45;;;;;;;3.03;2.83;;;;;;;5.96;85.40;97666.69;5002036;28;20197;-70
2021/05/09 02:39:12;;;;;;;3.20;3.00;;;;;;;5.89;85.67;97657.72;5004690;28;20213;-71
2021/05/09 02:41:40;;;;;;;2.93;2.77;;;;;;;5.84;86.95;97652.88;5003041;28;20225;-69
2021/05/09 02:44:07;;;;;;;3.40;3.27;;;;;;;5.94;86.12;97660.75;5005228;28;20704;-70
2021/05/09 02:46:35;;;;;;;3.40;3.20;;;;;;;5.78;86.27;97659.53;5005169;28;20600;-70
2021/05/09 02:49:03;;;;;;;3.80;3.60;;;;;;;5.90;86.63;97649.66;5004295;28;20209;-70
2021/05/09 02:51:30;;;;;;;3.60;3.40;;;;;;;5.93;86.16;97649.38;5002846;28;20728;-70
2021/05/09 02:53:57;;;;;;;3.93;3.73;;;;;;;5.82;86.40;97654.81;5004631;28;20212;-70
2021/05/09 02:56:24;;;;;;;3.30;3.10;;;;;;;5.73;86.67;97647.78;5003948;28;20205;-71
2021/05/09 02:58:51;;;;;;;3.30;3.10;;;;;;;5.74;87.13;97652.88;5003703;28;20205;-69
2021/05/09 03:01:18;;;;;;;3.67;3.37;;;;;;;5.63;87.44;97653.88;5003169;28;20241;-69
2021/05/09 03:03:46;;;;;;;4.07;3.50;;;;;;;5.63;87.50;97645.97;5003998;28;20604;-72
2021/05/09 03:06:13;;;;;;;3.63;3.43;;;;;;;5.61;88.50;97653.19;5003274;28;20220;-68
2021/05/09 03:08:40;;;;;;;3.70;3.40;;;;;;;5.68;87.55;97655.25;5003685;28;20574;-70
2021/05/09 03:11:07;;;;;;;3.70;3.50;;;;;;;5.70;87.77;97655.97;5003214;28;20221;-69
2021/05/09 03:13:34;;;;;;;3.13;2.93;;;;;;;5.72;87.21;97656.66;5003168;28;20201;-69
2021/05/09 03:16:02;;;;;;;3.43;3.23;;;;;;;5.78;86.54;97656.06;5004000;28;20669;-71
2021/05/09 03:18:29;;;;;;;3.80;3.57;;;;;;;5.72;87.63;97648.75;5002478;28;20716;-69
2021/05/09 03:20:57;;;;;;;3.10;2.90;;;;;;;5.63;87.89;97664.38;5003659;28;20508;-73
2021/05/09 03:23:25;;;;;;;3.60;3.37;;;;;;;5.56;88.50;97659.84;5001352;28;20212;-72
2021/05/09 03:25:51;;;;;;;3.93;3.73;;;;;;;5.42;89.01;97661.91;5003236;28;20209;-70
2021/05/09 03:28:19;;;;;;;3.80;3.60;;;;;;;5.33;89.86;97668.88;5002891;28;20236;-69
2021/05/09 03:30:46;;;;;;;4.00;3.70;;;;;;;5.32;89.90;97666.34;5003447;28;20229;-71
2021/05/09 03:33:17;;;;;;;3.77;3.57;;;;;;;5.42;90.23;97672.44;5002994;28;20216;-68
2021/05/09 03:35:44;;;;;;;3.80;3.53;;;;;;;5.41;90.09;97662.88;5001335;28;20209;-68
2021/05/09 03:38:12;;;;;;;4.20;3.90;;;;;;;5.43;88.90;97665.41;5002762;28;20204;-70
2021/05/09 03:40:41;;;;;;;3.37;3.17;;;;;;;5.40;89.99;97676.19;5001952;28;20307;-70
2021/05/09 03:43:08;;;;;;;3.80;3.30;;;;;;;5.28;90.32;97665.78;5003269;28;20205;-70
2021/05/09 03:45:35;;;;;;;3.30;3.10;;;;;;;5.30;91.42;97666.50;5002687;28;20212;-72
2021/05/09 03:48:03;;;;;;;3.77;3.40;;;;;;;5.37;91.09;97674.66;5003040;28;20232;-72
2021/05/09 03:50:30;;;;;;;3.90;3.60;;;;;;;5.52;89.51;97674.25;5000008;28;20283;-70
2021/05/09 03:52:57;;;;;;;3.90;3.60;;;;;;;5.54;88.83;97670.50;5002774;28;20299;-71
2021/05/09 03:55:25;;;;;;;3.67;3.47;;;;;;;5.61;89.20;97673.41;5002092;28;20208;-72
2021/05/09 03:57:52;;;;;;;3.57;3.37;;;;;;;5.68;88.90;97669.22;5001771;28;20201;-71
2021/05/09 04:00:20;;;;;;;3.70;3.50;;;;;;;5.66;88.92;97676.44;5002551;28;20229;-68
2021/05/09 04:02:47;;;;;;;4.00;3.80;;;;;;;5.70;88.38;97672.56;5001928;28;20213;-68
2021/05/09 04:05:14;;;;;;;3.70;3.40;;;;;;;5.79;88.71;97671.69;5002380;28;20213;-69
2021/05/09 04:07:41;;;;;;;4.33;4.00;;;;;;;5.83;88.50;97671.41;5002132;28;20227;-68
2021/05/09 04:10:08;;;;;;;2.90;2.80;;;;;;;5.82;88.18;97670.59;4999304;28;20228;-68
2021/05/09 04:12:36;;;;;;;3.70;3.50;;;;;;;5.86;88.24;97673.75;5000425;28;20204;-68
2021/05/09 04:15:04;;;;;;;4.30;3.90;;;;;;;5.96;87.45;97666.69;5000906;28;20208;-68
2021/05/09 04:17:31;;;;;;;4.13;3.83;;;;;;;5.92;87.24;97666.13;5001108;28;20208;-68
2021/05/09 04:19:58;;;;;;;4.20;3.80;;;;;;;5.83;88.05;97668.78;4997873;28;20225;-70
2021/05/09 04:22:25;;;;;;;3.50;3.30;;;;;;;5.81;88.55;97668.94;5001993;28;20209;-67
2021/05/09 04:24:53;;;;;;;3.87;3.57;;;;;;;5.89;88.03;97666.41;5001766;28;20743;-68
2021/05/09 04:27:20;;;;;;;4.20;3.90;;;;;;;5.93;88.19;97670.41;5002635;28;20240;-67
2021/05/09 04:29:48;;;;;;;3.80;3.50;;;;;;;5.97;87.88;97672.75;5002254;28;20225;-69
2021/05/09 04:32:15;;;;;;;3.90;3.60;;;;;;;6.06;87.15;97670.16;4999449;28;20228;-70
2021/05/09 04:34:42;;;;;;;3.67;3.47;;;;;;;6.14;86.39;97663.34;5000464;28;20209;-66
2021/05/09 04:37:09;;;;;;;3.97;3.67;;;;;;;6.09;87.22;97666.41;5002526;28;20213;-68
2021/05/09 04:39:36;;;;;;;3.33;3.13;;;;;;;6.24;86.19;97669.38;5002491;28;20211;-68
2021/05/09 04:42:03;;;;;;;3.77;3.57;;;;;;;6.44;84.83;97672.78;4999418;28;20679;-68
2021/05/09 04:44:30;;;;;;;4.90;3.60;;;;;;;6.49;84.15;97669.69;5002279;28;20521;-66
2021/05/09 04:46:58;;;;;;;3.70;3.50;;;;;;;6.48;84.32;97666.25;4999858;28;20240;-67
2021/05/09 04:49:25;;;;;;;4.00;3.70;;;;;;;6.55;84.24;97660.41;5001281;28;20233;-70
2021/05/09 04:51:52;;;;;;;3.70;3.40;;;;;;;6.71;84.17;97660.56;5002453;28;20209;-66
2021/05/09 04:54:19;;;;;;;3.47;3.27;;;;;;;6.76;83.96;97662.78;5002605;28;20696;-67
2021/05/09 04:56:46;;;;;;;3.57;3.37;;;;;;;6.84;83.89;97654.97;5002046;28;20420;-67
2021/05/09 04:59:13;;;;;;;3.70;3.30;;;;;;;6.87;83.14;97659.91;4999402;28;20208;-67
2021/05/09 05:01:40;;;;;;;3.57;3.37;;;;;;;7.02;82.81;97659.44;5001262;28;20709;-68
2021/05/09 05:04:07;;;;;;;3.57;3.33;;;;;;;7.19;81.84;97658.59;5001788;28;20370;-66
2021/05/09 05:06:34;;;;;;;3.83;3.30;;;;;;;7.24;81.36;97666.06;5001952;28;20677;-67
2021/05/09 05:09:01;;;;;;;3.40;3.20;;;;;;;7.44;79.95;97668.53;5000754;28;20215;-67
2021/05/09 05:11:28;;;;;;;3.63;3.43;;;;;;;7.45;80.41;97659.63;4999561;28;20232;-69
2021/05/09 05:13:55;;;;;;;4.40;3.17;;;;;;;7.62;79.45;97661.44;5001967;28;20668;-69
2021/05/09 05:16:22;;;;;;;4.17;3.87;;;;;;;7.76;79.27;97667.13;5001816;28;20232;-68
2021/05/09 05:18:49;;;;;;;3.50;3.30;;;;;;;8.00;78.15;97670.91;5001056;28;20208;-69
2021/05/09 05:21:17;;;;;;;3.63;3.37;;;;;;;7.99;77.79;97672.72;5001510;28;20236;-68
2021/05/09 05:23:44;;;;;;;3.27;3.17;;;;;;;8.12;77.35;97677.59;5001301;28;20212;-66
2021/05/09 05:26:11;;;;;;;3.37;3.17;;;;;;;8.36;77.10;97674.25;5000501;28;20665;-67
2021/05/09 05:28:38;;;;;;;3.73;3.40;;;;;;;8.33;77.02;97682.47;4999800;28;20991;-68
2021/05/09 05:31:05;;;;;;;3.70;3.43;;;;;;;8.46;75.54;97675.94;5001331;28;20243;-66
2021/05/09 05:33:32;;;;;;;3.23;3.03;;;;;;;8.69;74.72;97679.69;5001988;28;20247;-68
2021/05/09 05:36:00;;;;;;;3.07;2.90;;;;;;;8.94;73.70;97663.94;4999526;28;20580;-69
2021/05/09 05:38:28;;;;;;;4.03;3.63;;;;;;;9.08;74.21;97670.38;5001404;28;20374;-66
2021/05/09 05:40:56;;;;;;;3.37;3.17;;;;;;;9.22;73.15;97671.56;5001262;28;20224;-67
2021/05/09 05:43:24;;;;;;;3.20;3.00;;;;;;;9.38;72.76;97668.09;5000760;28;20560;-66
2021/05/09 05:45:52;;;;;;;2.80;2.60;;;;;;;9.42;71.60;97676.53;5001364;28;20307;-67
2021/05/09 05:48:19;;;;;;;2.73;2.63;;;;;;;9.82;69.61;97668.75;5001398;28;20708;-69
2021/05/09 05:50:46;;;;;;;3.17;2.97;;;;;;;9.90;70.46;97666.13;5001377;28;20582;-68
2021/05/09 05:53:16;;;;;;;3.00;2.90;;;;;;;10.16;69.04;97666.88;5001525;28;20213;-65
2021/05/09 05:55:44;;;;;;;3.00;2.80;;;;;;;10.33;68.39;97660.53;5001452;28;20468;-70
2021/05/09 05:58:12;;;;;;;3.10;2.80;;;;;;;10.47;67.04;97666.97;5000964;28;20201;-70
2021/05/09 06:00:39;;;;;;;3.20;3.00;;;;;;;10.57;66.46;97656.19;4998785;28;20229;-66
2021/05/09 06:03:06;;;;;;;2.87;2.67;;;;;;;10.76;65.83;97656.75;5006725;28;20227;-70
2021/05/09 06:05:33;;;;;;;2.50;2.40;;;;;;;10.84;65.94;97654.06;5005086;28;20205;-67
2021/05/09 06:08:00;;;;;;;2.90;2.70;;;;;;;11.05;64.93;97656.09;5005067;28;20228;-71
2021/05/09 06:10:27;;;;;;;4.63;2.70;;;;;;;11.25;64.33;97653.81;5005075;28;20282;-70
2021/05/09 06:12:55;;;;;;;2.90;2.70;;;;;;;11.26;64.15;97650.16;5004918;28;20208;-66
2021/05/09 06:15:22;;;;;;;2.90;2.70;;;;;;;11.44;62.82;97656.97;5002818;28;20213;-70
2021/05/09 06:17:49;;;;;;;2.70;2.50;;;;;;;11.51;63.22;97670.38;5006272;28;20204;-69
2021/05/09 06:20:17;;;;;;;3.10;2.90;;;;;;;11.76;61.83;97659.56;5004670;28;20244;-70
2021/05/09 06:22:44;;;;;;;2.70;2.60;;;;;;;11.79;62.29;97660.00;5005422;28;20205;-69
2021/05/09 06:25:12;;;;;;;2.53;2.33;;;;;;;12.07;60.62;97659.44;5005346;28;20600;-67
2021/05/09 06:27:40;;;;;;;3.17;2.53;;;;;;;12.13;60.32;97660.56;5003558;28;20229;-70
2021/05/09 06:30:09;;;;;;;3.00;2.80;;;;;;;12.28;60.90;97665.84;5005188;28;20677;-68
2021/05/09 06:32:36;;;;;;;2.63;2.53;;;;;;;12.29;60.64;97648.91;5002968;28;20216;-69
2021/05/09 06:35:05;;;;;;;2.47;2.37;;;;;;;12.50;59.23;97660.66;5003426;28;20216;-67
2021/05/09 06:37:33;;;;;;;3.23;2.93;;;;;;;12.69;58.79;97656.59;5004472;28;22062;-68
2021/05/09 06:40:01;;;;;;;3.87;2.47;;;;;;;12.83;60.03;97652.25;5004979;28;20225;-68
2021/05/09 06:42:28;;;;;;;2.70;2.60;;;;;;;12.92;58.93;97659.09;5003798;28;20209;-67
2021/05/09 06:44:59;;;;;;;2.70;2.50;;;;;;;13.09;58.51;97656.22;5001758;28;20209;-68
2021/05/09 06:47:27;;;;;;;2.63;2.43;;;;;;;13.15;58.53;97645.66;5001260;28;20511;-69
2021/05/09 06:49:54;;;;;;;2.30;2.10;;;;;;;13.31;57.82;97649.91;5003003;28;20236;-69
2021/05/09 06:52:21;;;;;;;2.93;2.73;;;;;;;13.31;57.20;97652.56;5003255;28;20224;-68
2021/05/09 06:54:49;;;;;;;2.57;2.47;;;;;;;13.42;57.16;97653.94;5003417;28;20212;-68
2021/05/09 06:57:16;;;;;;;2.60;2.50;;;;;;;13.56;56.80;97651.38;5004617;28;20204;-70
2021/05/09 06:59:43;;;;;;;2.93;2.73;;;;;;;13.89;56.24;97646.31;5004720;28;20221;-69
2021/05/09 07:02:10;;;;;;;3.00;2.17;;;;;;;13.86;56.11;97644.06;5004315;28;20213;-67
2021/05/09 07:04:38;;;;;;;2.77;2.60;;;;;;;13.91;56.15;97654.09;5000909;28;20217;-69
2021/05/09 07:07:05;;;;;;;2.30;2.20;;;;;;;14.20;56.20;97649.59;5003094;28;20489;-69
2021/05/09 07:09:32;;;;;;;2.83;2.63;;;;;;;14.34;55.72;97647.84;5003610;28;20209;-70
2021/05/09 07:11:59;;;;;;;2.70;2.50;;;;;;;14.33;56.09;97641.66;5004871;28;20662;-68
2021/05/09 07:14:26;;;;;;;2.43;2.33;;;;;;;14.45;55.36;97641.13;5003704;28;20292;-69
2021/05/09 07:16:53;;;;;;;3.53;2.13;;;;;;;14.67;54.83;97644.50;5004579;28;20532;-68
2021/05/09 07:19:20;;;;;;;2.37;2.27;;;;;;;14.93;54.58;97637.63;5003883;28;20205;-67
2021/05/09 07:21:52;;;;;;;2.57;2.40;;;;;;;15.21;52.48;97634.00;5004455;28;20504;-67
2021/05/09 07:24:19;;;;;;;2.10;2.00;;;;;;;15.20;51.84;97637.69;5004656;28;20576;-67
2021/05/09 07:26:47;;;;;;;1.97;1.87;;;;;;;15.31;52.72;97636.28;5000593;28;20205;-69
2021/05/09 07:29:14;;;;;;;2.33;2.23;;;;;;;15.41;52.24;97633.22;5001632;28;20224;-68
2021/05/09 07:31:46;;;;;;;2.83;2.57;;;;;;;15.69;50.94;97627.69;5004269;28;20266;-68
2021/05/09 07:34:14;;;;;;;2.63;2.43;;;;;;;15.73;51.51;97625.44;5003491;28;20239;-65
2021/05/09 07:36:41;;;;;;;2.30;2.20;;;;;;;15.88;50.41;97620.72;5004252;28;20616;-67
2021/05/09 07:39:09;;;;;;;2.47;2.37;;;;;;;15.99;50.71;97634.47;5003273;28;20212;-68
2021/05/09 07:41:36;;;;;;;2.27;2.10;;;;;;;16.23;50.51;97627.63;5003628;28;20247;-67
2021/05/09 07:44:06;;;;;;;1.60;1.60;;;;;;;16.22;49.57;97626.00;5003735;28;20262;-65
2021/05/09 07:46:33;;;;;;;1.73;1.70;;;;;;;16.44;49.97;97623.06;5004335;28;20291;-68
2021/05/09 07:49:00;;;;;;;1.97;1.83;;;;;;;16.52;49.82;97620.16;5002559;28;20252;-67
2021/05/09 07:51:27;;;;;;;1.90;1.80;;;;;;;16.64;50.04;97610.41;5000441;28;20319;-67
2021/05/09 07:53:54;;;;;;;2.70;2.20;;;;;;;17.02;48.08;97611.50;5004083;28;20411;-67
2021/05/09 07:56:22;;;;;;;1.70;1.60;;;;;;;17.05;48.02;97602.25;5002546;28;20205;-70
2021/05/09 07:58:49;;;;;;;1.73;1.63;;;;;;;17.18;47.17;97595.94;5001708;28;20237;-70
2021/05/09 08:01:16;;;;;;;1.73;1.60;;;;;;;17.13;46.37;97588.59;5002548;28;20241;-68
2021/05/09 08:03:42;;;;;;;2.37;2.17;;;;;;;17.45;46.25;97588.56;5002611;28;20212;-71
2021/05/09 08:06:10;;;;;;;1.90;1.80;;;;;;;17.57;46.84;97593.19;5002579;28;20205;-69
2021/05/09 08:08:38;;;;;;;1.70;1.60;;;;;;;17.87;45.68;97590.66;5000325;28;20256;-71
2021/05/09 08:11:05;;;;;;;2.27;2.17;;;;;;;17.97;45.73;97589.31;5001319;28;20237;-69
2021/05/09 08:13:33;;;;;;;4.17;2.10;;;;;;;18.11;45.98;97595.41;5003846;28;20216;-68
2021/05/09 08:16:00;;;;;;;7.33;2.53;;;;;;;18.36;45.21;97590.78;5002353;28;20205;-69
2021/05/09 08:18:28;;;;;;;2.57;2.03;;;;;;;18.29;45.79;97589.22;5001684;28;20207;-68
2021/05/09 08:20:56;;;;;;;2.17;1.80;;;;;;;18.37;45.67;97589.75;5003189;28;20228;-68
2021/05/09 08:23:24;;;;;;;1.70;1.60;;;;;;;18.84;42.60;97591.03;5003149;28;20567;-68
2021/05/09 08:25:50;;;;;;;1.87;1.77;;;;;;;18.82;42.27;97587.75;5002387;28;20208;-68
2021/05/09 08:28:17;;;;;;;3.20;1.60;;;;;;;19.02;42.94;97584.00;5003017;28;20235;-67
2021/05/09 08:30:45;;;;;;;1.50;1.50;;;;;;;19.13;42.08;97590.44;5002807;28;20241;-69
2021/05/09 08:33:12;;;;;;;1.80;1.70;;;;;;;19.26;42.20;97587.56;5003485;28;20217;-68
2021/05/09 08:35:39;;;;;;;1.80;1.70;;;;;;;19.42;41.56;97579.88;5001351;28;20212;-71
2021/05/09 08:38:06;;;;;;;1.30;1.30;;;;;;;19.55;40.93;97584.22;5003277;28;20581;-68
2021/05/09 08:40:38;;;;;;;1.80;1.70;;;;;;;19.63;40.37;97578.50;5000594;28;20228;-71
2021/05/09 08:43:05;;;;;;;2.47;1.90;;;;;;;19.50;41.87;97588.44;5002735;28;20215;-68
2021/05/09 08:45:32;;;;;;;2.00;1.90;;;;;;;19.73;40.07;97591.38;4999051;28;20220;-70
2021/05/09 08:48:00;;;;;;;2.10;1.70;;;;;;;19.88;41.14;97580.16;5002242;28;20225;-67
2021/05/09 08:50:27;;;;;;;2.03;1.47;;;;;;;20.07;40.02;97586.25;5001483;28;20232;-70
2021/05/09 08:52:55;;;;;;;2.27;2.07;;;;;;;20.14;40.31;97584.25;5002370;28;20665;-70
2021/05/09 08:55:26;;;;;;;1.50;1.40;;;;;;;20.26;40.23;97573.47;5002732;28;20380;-72
2021/05/09 08:57:54;;;;;;;1.83;1.50;;;;;;;20.39;40.44;97572.38;5002314;28;20696;-67
2021/05/09 09:00:23;;;;;;;1.50;1.40;;;;;;;20.60;39.19;97572.78;5002186;28;20236;-68
2021/05/09 09:02:55;;;;;;;1.30;1.30;;;;;;;20.71;38.65;97566.56;5002648;28;20224;-66
2021/05/09 09:05:35;;;;;;;1.37;1.37;;;;;;;21.15;37.77;97568.69;5001862;28;20292;-69
2021/05/09 09:08:03;;;;;;;2.50;1.67;;;;;;;21.12;37.57;97569.19;4999526;28;20225;-67
2021/05/09 09:10:32;;;;;;;1.77;1.57;;;;;;;21.23;37.00;97562.94;5002676;28;20225;-72
2021/05/09 09:13:00;;;;;;;2.77;1.83;;;;;;;21.37;37.23;97560.69;4999447;28;20212;-70
2021/05/09 09:15:51;;;;;;;1.43;1.40;;;;;;;21.35;37.01;97559.34;5002727;28;20197;-66
2021/05/09 09:18:29;;;;;;;1.47;1.37;;;;;;;21.42;36.69;97553.78;5002372;28;20210;-72
2021/05/09 09:20:57;;;;;;;1.87;1.43;;;;;;;21.56;36.68;97549.69;5002883;28;20216;-70
2021/05/09 09:23:26;;;;;;;1.93;1.47;;;;;;;21.65;35.64;97555.53;5001925;28;20673;-69
2021/05/09 09:25:54;;;;;;;1.40;1.40;;;;;;;21.57;36.60;97545.09;5002515;28;20205;-69
2021/05/09 09:28:21;;;;;;;1.70;1.60;;;;;;;21.78;36.54;97538.16;5002436;28;20252;-70
2021/05/09 09:30:50;;;;;;;2.23;2.07;;;;;;;21.93;34.94;97541.06;5002511;28;20232;-68
2021/05/09 09:33:17;;;;;;;1.50;1.40;;;;;;;22.00;35.46;97529.28;5002422;28;20593;-68
2021/05/09 09:35:45;;;;;;;2.00;1.40;;;;;;;22.18;36.13;97525.47;5002776;28;20204;-70
2021/05/09 09:38:28;;;;;;;1.77;1.67;;;;;;;22.30;36.42;97522.66;5006630;28;20219;-69
2021/05/09 09:41:15;;;;;;;1.37;1.37;;;;;;;22.39;36.04;97526.53;5006575;28;20231;-68
2021/05/09 09:43:44;;;;;;;2.00;1.90;;;;;;;22.54;35.21;97515.13;5005918;28;20207;-68
2021/05/09 09:46:28;;;;;;;1.30;1.20;;;;;;;22.79;33.61;97517.25;5006829;28;20216;-71
2021/05/09 09:48:55;;;;;;;1.63;1.53;;;;;;;22.79;34.60;97519.97;5005878;28;20755;-67
2021/05/09 09:51:23;;;;;;;1.53;1.53;;;;;;;22.62;34.66;97506.56;5005641;28;20236;-69
2021/05/09 09:53:51;;;;;;;2.20;1.57;;;;;;;22.86;34.70;97503.56;5005347;28;20205;-70
2021/05/09 09:56:19;;;;;;;1.57;1.47;;;;;;;22.89;33.57;97511.16;5005413;28;20266;-68
2021/05/09 09:58:52;;;;;;;1.40;1.30;;;;;;;22.99;33.57;97508.53;5006132;28;20205;-68
2021/05/09 10:01:22;;;;;;;1.73;1.63;;;;;;;22.92;33.44;97497.13;5005865;28;20240;-68
2021/05/09 10:03:49;;;;;;;1.43;1.20;;;;;;;23.05;34.22;97489.66;5006735;28;20215;-68
2021/05/09 10:06:17;;;;;;;1.57;1.40;;;;;;;23.28;34.37;97491.22;5005638;28;20213;-70
2021/05/09 10:08:45;;;;;;;1.70;1.60;;;;;;;23.27;33.23;97489.59;5005495;28;20224;-68
2021/05/09 10:11:13;;;;;;;2.07;1.70;;;;;;;23.27;33.57;97484.19;5005006;28;20232;-71
2021/05/09 10:13:40;;;;;;;1.80;1.70;;;;;;;23.57;33.44;97477.34;5006225;28;20201;-68
2021/05/09 10:16:08;;;;;;;2.00;1.90;;;;;;;23.82;32.44;97484.00;5004881;28;20212;-71
2021/05/09 10:18:39;;;;;;;1.67;1.27;;;;;;;23.62;33.09;97466.56;5005156;28;20205;-69
2021/05/09 10:21:06;;;;;;;1.60;1.50;;;;;;;23.82;31.70;97468.56;5005422;28;20235;-69
2021/05/09 10:23:33;;;;;;;1.50;1.40;;;;;;;23.80;33.42;97473.41;5004789;28;20213;-70
2021/05/09 10:26:01;;;;;;;1.40;1.40;;;;;;;24.10;31.83;97471.16;5006381;28;20205;-71
2021/05/09 10:28:38;;;;;;;1.40;1.30;;;;;;;24.25;31.56;97463.06;5004209;28;20371;-70
2021/05/09 10:31:05;;;;;;;1.80;1.70;;;;;;;24.43;31.29;97466.34;5001905;28;20472;-68
2021/05/09 10:33:46;;;;;;;1.77;1.43;;;;;;;24.48;32.14;97463.69;5005236;28;20225;-68
2021/05/09 10:36:38;;;;;;;1.93;1.73;;;;;;;24.80;30.56;97454.53;5005323;28;20254;-67
2021/05/09 10:39:15;;;;;;;1.73;1.60;;;;;;;24.93;31.06;97441.53;4994359;28;20204;-72
2021/05/09 10:42:15;;;;;;;1.40;1.40;;;;;;;25.68;29.94;97443.63;5005626;28;20238;-69
2021/05/09 10:44:49;;;;;;;1.13;1.13;;;;;;;25.98;28.70;97439.16;5001123;28;20226;-69
2021/05/09 10:47:19;;;;;;;1.30;1.17;;;;;;;26.86;28.42;97433.22;5002928;28;20397;-68
2021/05/09 10:50:24;;;;;;;1.60;1.50;;;;;;;27.36;25.64;97428.72;5005034;28;20290;-72
2021/05/09 10:52:52;;;;;;;2.57;1.20;;;;;;;26.49;26.72;97429.13;5003570;28;20205;-71
2021/05/09 10:55:45;;;;;;;1.13;1.13;;;;;;;27.35;23.61;97418.94;5005330;28;20209;-67
2021/05/09 10:58:15;;;;;;;1.90;1.20;;;;;;;27.94;23.68;97419.63;5004230;28;20205;-66
2021/05/09 11:01:15;;;;;;;2.27;2.10;;;;;;;27.10;25.19;97410.75;5005099;28;20229;-70
2021/05/09 11:03:48;;;;;;;1.90;1.80;;;;;;;27.35;25.54;97405.34;5003113;28;20204;-70
2021/05/09 11:06:16;;;;;;;1.27;1.17;;;;;;;28.23;22.14;97407.03;5004111;28;20689;-70
2021/05/09 11:08:57;;;;;;;1.00;1.00;;;;;;;27.95;22.71;97409.53;5005071;28;20309;-65
2021/05/09 11:11:54;;;;;;;1.20;1.13;;;;;;;27.86;23.17;97396.59;5004249;28;20229;-71
2021/05/09 11:14:21;;;;;;;1.40;1.30;;;;;;;28.03;22.25;97404.25;5003016;28;20933;-71
2021/05/09 11:17:02;;;;;;;1.17;1.17;;;;;;;28.16;22.78;97391.88;5004677;28;20207;-71
2021/05/09 11:19:41;;;;;;;0.90;0.90;;;;;;;27.89;22.49;97395.22;5003799;28;21110;-69
2021/05/09 11:22:09;;;;;;;1.43;1.37;;;;;;;27.85;23.01;97391.44;5003359;28;20208;-67
2021/05/09 11:24:37;;;;;;;5.97;1.90;;;;;;;28.14;23.14;97399.53;5003453;28;20209;-70
2021/05/09 11:27:08;;;;;;;1.57;1.50;;;;;;;28.12;23.01;97406.31;5002880;28;20212;-69
2021/05/09 11:29:38;;;;;;;1.80;1.30;;;;;;;27.84;22.16;97381.63;5004178;28;20720;-69
2021/05/09 11:32:09;;;;;;;1.83;1.70;;;;;;;27.96;23.19;97386.66;5004498;28;20236;-68
2021/05/09 11:34:37;;;;;;;1.60;1.50;;;;;;;28.30;23.08;97388.41;5002382;28;20665;-70
2021/05/09 11:37:04;;;;;;;1.90;1.07;;;;;;;28.34;23.70;97375.00;5003567;28;20205;-68
2021/05/09 11:39:36;;;;;;;1.90;1.30;;;;;;;27.62;23.73;97365.84;5003645;28;20500;-69
2021/05/09 11:42:07;;;;;;;1.43;1.43;;;;;;;27.81;23.57;97361.28;5003093;28;20239;-69
2021/05/09 11:44:41;;;;;;;1.90;1.23;;;;;;;27.67;24.02;97357.66;5003850;28;20669;-71